Bloomingdale, IN (47832)

1:18 PM EDT on July 24, 2016 (GMT -0400)
KINROCKV2 | | Change Station
Active Advisory: Heat Advisory

Elev 702 ft 39.77 °N, 87.22 °W | Updated 24 minutes ago

Scattered Clouds
Scattered Clouds
89.7 °F
Feels Like 114 °F
N
5.0
Wind Variable Wind from SW
Gusts 10.0 mph

Today
High -- | Low -- °F
--% Chance of Precip.
Yesterday
High -- | Low -- °F
Precip. -- in
Pressure 29.99 in
Visibility 10.0 miles
Clouds Scattered Clouds 2700 ft
Heat Index 114 °F
Dew Point 84 °F
Humidity 82%
Rainfall in
Snow Depth Not available.
6:41 AM 9:09 PM
Waning Gibbous, 74% visible
METAR KPRG 241655Z AUTO 20006KT 10SM SCT027 31/27 A2999 RMK AO2 T03130269
Pressure 29.99 in
Visibility 10.0 miles
Clouds Scattered Clouds 2700 ft
Heat Index 114 °F
Dew Point 84 °F
Humidity 82%
Rainfall in
Snow Depth Not available.
6:41 AM 9:09 PM
Waning Gibbous, 74% visible
METAR KPRG 241655Z AUTO 20006KT 10SM SCT027 31/27 A2999 RMK AO2 T03130269

10-Day Weather Forecast

Almanac

Astronomy

Jul. 24, 2016 Rise Set
Actual Time
Civil Twilight
Nautical Twilight
Astronomical Twilight
Moon
Length of Visible Light
Length of Day
Tomorrow will be .
, % of the Moon is Illuminated

Today's Extremes

State Highs State Lows

Community

WunderPhotos

Upload Photos

1,927,125 photos uploaded!

WunderBlog® & News

Nearby

Air Quality

  Air Quality AQ Index Pollutant
Not available.

Snow Depth

Station Depth Elevation

Earthquake Activity

City Distance Mag. Time & Date
Minimum magnitude displayed is 2.5.

Coastal Water Temperatures

Place Temperature

Stations

Nearby Weather Stations

Station Location Temp. Windchill Dew Point Humidity Wind Precip. Elev Updated Type
                   

Watches & Warnings

Heat Advisory
Issued: 9:58 AM EDT Jul. 24, 2016 – National Weather Service

... Heat advisory remains in effect until 8 PM EDT this evening...

* temperature... maximums will reach the lower to middle 90s while
dewpoint temperatures reach the middle 70s.

* Heat index... heat index values will approach 105 degrees this
afternoon.

* Impacts... there is a risk for heat related illnesses with
prolonged outdoor exposure or no access to air conditioning.

Precautionary/preparedness actions...

A heat advisory means that a period of hot temperatures is
expected. The combination of hot temperatures and high humidity
will combine to create a situation in which heat illnesses are
possible. Drink plenty of fluids... stay in an air-conditioned
room... stay out of the sun... and check up on relatives and
neighbors.